sensor_id;sensor_type;location;lat;lon;timestamp;temperature;humidity
62912;DHT22;49111;51.028;4.218;2022-08-19T00:01:29;20.20;99.90
62912;DHT22;49111;51.028;4.218;2022-08-19T00:03:57;20.20;99.90
62912;DHT22;49111;51.028;4.218;2022-08-19T00:06:23;20.20;99.90
62912;DHT22;49111;51.028;4.218;2022-08-19T00:08:49;20.20;99.90
62912;DHT22;49111;51.028;4.218;2022-08-19T00:11:17;20.10;99.90
62912;DHT22;49111;51.028;4.218;2022-08-19T00:13:43;20.10;99.90
62912;DHT22;49111;51.028;4.218;2022-08-19T00:16:09;20.10;99.90
62912;DHT22;49111;51.028;4.218;2022-08-19T00:18:35;20.10;99.90
62912;DHT22;49111;51.028;4.218;2022-08-19T00:21:01;20.10;99.90
62912;DHT22;49111;51.028;4.218;2022-08-19T00:23:27;20.10;99.90
62912;DHT22;49111;51.028;4.218;2022-08-19T00:25:53;20.10;99.90
62912;DHT22;49111;51.028;4.218;2022-08-19T00:28:19;20.10;99.90
62912;DHT22;49111;51.028;4.218;2022-08-19T00:30:46;20.10;99.90
62912;DHT22;49111;51.028;4.218;2022-08-19T00:33:12;20.10;99.90
62912;DHT22;49111;51.028;4.218;2022-08-19T00:35:39;20.10;99.90
62912;DHT22;49111;51.028;4.218;2022-08-19T00:38:05;20.00;99.90
62912;DHT22;49111;51.028;4.218;2022-08-19T00:40:32;20.00;99.90
62912;DHT22;49111;51.028;4.218;2022-08-19T00:42:58;20.00;99.90
62912;DHT22;49111;51.028;4.218;2022-08-19T00:45:26;20.00;99.90
62912;DHT22;49111;51.028;4.218;2022-08-19T00:47:51;19.90;99.90
62912;DHT22;49111;51.028;4.218;2022-08-19T00:50:19;19.80;99.90
62912;DHT22;49111;51.028;4.218;2022-08-19T00:52:48;19.80;99.90
62912;DHT22;49111;51.028;4.218;2022-08-19T00:55:21;19.70;99.90
62912;DHT22;49111;51.028;4.218;2022-08-19T00:57:55;19.70;99.90
62912;DHT22;49111;51.028;4.218;2022-08-19T01:00:23;19.70;99.90
62912;DHT22;49111;51.028;4.218;2022-08-19T01:02:50;19.70;99.90
62912;DHT22;49111;51.028;4.218;2022-08-19T01:05:21;19.60;99.90
62912;DHT22;49111;51.028;4.218;2022-08-19T01:07:48;19.60;99.90
62912;DHT22;49111;51.028;4.218;2022-08-19T01:10:18;19.50;99.90
62912;DHT22;49111;51.028;4.218;2022-08-19T01:12:46;19.50;99.90
62912;DHT22;49111;51.028;4.218;2022-08-19T01:15:16;19.50;99.90
62912;DHT22;49111;51.028;4.218;2022-08-19T01:17:43;19.40;99.90
62912;DHT22;49111;51.028;4.218;2022-08-19T01:20:14;19.40;99.90
62912;DHT22;49111;51.028;4.218;2022-08-19T01:23:00;19.40;99.90
62912;DHT22;49111;51.028;4.218;2022-08-19T01:25:31;19.40;99.90
62912;DHT22;49111;51.028;4.218;2022-08-19T01:27:58;19.30;99.90
62912;DHT22;49111;51.028;4.218;2022-08-19T01:30:34;19.30;99.90
62912;DHT22;49111;51.028;4.218;2022-08-19T01:33:01;19.40;99.90
62912;DHT22;49111;51.028;4.218;2022-08-19T01:35:29;19.30;99.90
62912;DHT22;49111;51.028;4.218;2022-08-19T01:38:08;19.40;99.90
62912;DHT22;49111;51.028;4.218;2022-08-19T01:40:37;19.40;99.90
62912;DHT22;49111;51.028;4.218;2022-08-19T01:43:05;19.40;99.90
62912;DHT22;49111;51.028;4.218;2022-08-19T01:45:33;19.40;99.90
62912;DHT22;49111;51.028;4.218;2022-08-19T01:48:00;19.30;99.90
62912;DHT22;49111;51.028;4.218;2022-08-19T01:50:26;19.30;99.90
62912;DHT22;49111;51.028;4.218;2022-08-19T01:52:53;19.20;99.90
62912;DHT22;49111;51.028;4.218;2022-08-19T01:55:20;19.20;99.90
62912;DHT22;49111;51.028;4.218;2022-08-19T01:57:51;19.20;99.90
62912;DHT22;49111;51.028;4.218;2022-08-19T02:00:21;19.20;99.90
62912;DHT22;49111;51.028;4.218;2022-08-19T02:02:47;19.10;99.90
62912;DHT22;49111;51.028;4.218;2022-08-19T02:05:13;19.10;99.90
62912;DHT22;49111;51.028;4.218;2022-08-19T02:07:40;19.10;99.90
62912;DHT22;49111;51.028;4.218;2022-08-19T02:10:09;19.00;99.90
62912;DHT22;49111;51.028;4.218;2022-08-19T02:12:35;19.10;99.90
62912;DHT22;49111;51.028;4.218;2022-08-19T02:15:02;19.10;99.90
62912;DHT22;49111;51.028;4.218;2022-08-19T02:17:29;19.00;99.90
62912;DHT22;49111;51.028;4.218;2022-08-19T02:19:56;19.00;99.90
62912;DHT22;49111;51.028;4.218;2022-08-19T02:22:22;18.90;99.90
62912;DHT22;49111;51.028;4.218;2022-08-19T02:24:51;18.90;99.90
62912;DHT22;49111;51.028;4.218;2022-08-19T02:27:17;18.90;99.90
62912;DHT22;49111;51.028;4.218;2022-08-19T02:29:49;18.90;99.90
62912;DHT22;49111;51.028;4.218;2022-08-19T02:32:15;18.80;99.90
62912;DHT22;49111;51.028;4.218;2022-08-19T02:34:41;18.80;99.90
62912;DHT22;49111;51.028;4.218;2022-08-19T02:37:08;18.80;99.90
62912;DHT22;49111;51.028;4.218;2022-08-19T02:39:53;18.80;99.90
62912;DHT22;49111;51.028;4.218;2022-08-19T02:42:19;18.70;99.90
62912;DHT22;49111;51.028;4.218;2022-08-19T02:44:45;18.70;99.90
62912;DHT22;49111;51.028;4.218;2022-08-19T02:47:11;18.60;99.90
62912;DHT22;49111;51.028;4.218;2022-08-19T02:49:38;18.60;99.90
62912;DHT22;49111;51.028;4.218;2022-08-19T02:52:04;18.60;99.90
62912;DHT22;49111;51.028;4.218;2022-08-19T02:54:30;18.50;99.90
62912;DHT22;49111;51.028;4.218;2022-08-19T02:56:55;18.50;99.90
62912;DHT22;49111;51.028;4.218;2022-08-19T02:59:21;18.50;99.90
62912;DHT22;49111;51.028;4.218;2022-08-19T03:01:47;18.50;99.90
62912;DHT22;49111;51.028;4.218;2022-08-19T03:04:14;18.50;99.90
62912;DHT22;49111;51.028;4.218;2022-08-19T03:06:44;18.60;99.90
62912;DHT22;49111;51.028;4.218;2022-08-19T03:09:11;18.60;99.90
62912;DHT22;49111;51.028;4.218;2022-08-19T03:11:37;18.60;99.90
62912;DHT22;49111;51.028;4.218;2022-08-19T03:14:04;18.50;99.90
62912;DHT22;49111;51.028;4.218;2022-08-19T03:16:41;18.50;99.90
62912;DHT22;49111;51.028;4.218;2022-08-19T03:19:07;18.50;99.90
62912;DHT22;49111;51.028;4.218;2022-08-19T03:21:34;18.40;99.90
62912;DHT22;49111;51.028;4.218;2022-08-19T03:24:06;18.40;99.90
62912;DHT22;49111;51.028;4.218;2022-08-19T03:26:33;18.40;99.90
62912;DHT22;49111;51.028;4.218;2022-08-19T03:29:04;18.30;99.90
62912;DHT22;49111;51.028;4.218;2022-08-19T03:31:30;18.30;99.90
62912;DHT22;49111;51.028;4.218;2022-08-19T03:33:56;18.40;99.90
62912;DHT22;49111;51.028;4.218;2022-08-19T03:36:24;18.40;99.90
62912;DHT22;49111;51.028;4.218;2022-08-19T03:38:53;18.40;99.90
62912;DHT22;49111;51.028;4.218;2022-08-19T03:41:22;18.40;99.90
62912;DHT22;49111;51.028;4.218;2022-08-19T03:43:48;18.40;99.90
62912;DHT22;49111;51.028;4.218;2022-08-19T03:46:18;18.40;99.90
62912;DHT22;49111;51.028;4.218;2022-08-19T03:48:46;18.40;99.90
62912;DHT22;49111;51.028;4.218;2022-08-19T03:51:32;18.50;99.90
62912;DHT22;49111;51.028;4.218;2022-08-19T03:53:59;18.40;99.90
62912;DHT22;49111;51.028;4.218;2022-08-19T03:56:27;18.40;99.90
62912;DHT22;49111;51.028;4.218;2022-08-19T03:58:58;18.40;99.90
62912;DHT22;49111;51.028;4.218;2022-08-19T04:01:27;18.40;99.90
62912;DHT22;49111;51.028;4.218;2022-08-19T04:03:55;18.40;99.90
62912;DHT22;49111;51.028;4.218;2022-08-19T04:06:23;18.40;99.90
62912;DHT22;49111;51.028;4.218;2022-08-19T04:08:51;18.40;99.90
62912;DHT22;49111;51.028;4.218;2022-08-19T04:11:22;18.40;99.90
62912;DHT22;49111;51.028;4.218;2022-08-19T04:13:49;18.40;99.90
62912;DHT22;49111;51.028;4.218;2022-08-19T04:16:17;18.40;99.90
62912;DHT22;49111;51.028;4.218;2022-08-19T04:18:44;18.40;99.90
62912;DHT22;49111;51.028;4.218;2022-08-19T04:21:16;18.40;99.90
62912;DHT22;49111;51.028;4.218;2022-08-19T04:23:42;18.30;99.90
62912;DHT22;49111;51.028;4.218;2022-08-19T04:26:17;18.30;99.90
62912;DHT22;49111;51.028;4.218;2022-08-19T04:28:44;18.20;99.90
62912;DHT22;49111;51.028;4.218;2022-08-19T04:31:15;18.20;99.90
62912;DHT22;49111;51.028;4.218;2022-08-19T04:33:41;18.20;99.90
62912;DHT22;49111;51.028;4.218;2022-08-19T04:36:15;18.20;99.90
62912;DHT22;49111;51.028;4.218;2022-08-19T04:38:41;18.20;99.90
62912;DHT22;49111;51.028;4.218;2022-08-19T04:41:07;18.20;99.90
62912;DHT22;49111;51.028;4.218;2022-08-19T04:43:51;18.20;99.90
62912;DHT22;49111;51.028;4.218;2022-08-19T04:46:17;18.20;99.90
62912;DHT22;49111;51.028;4.218;2022-08-19T04:48:43;18.20;99.90
62912;DHT22;49111;51.028;4.218;2022-08-19T04:51:11;18.10;99.90
62912;DHT22;49111;51.028;4.218;2022-08-19T04:53:40;18.10;99.90
62912;DHT22;49111;51.028;4.218;2022-08-19T04:56:16;18.10;99.90
62912;DHT22;49111;51.028;4.218;2022-08-19T04:58:47;18.20;99.90
62912;DHT22;49111;51.028;4.218;2022-08-19T05:01:15;18.20;99.90
62912;DHT22;49111;51.028;4.218;2022-08-19T05:03:42;18.20;99.90
62912;DHT22;49111;51.028;4.218;2022-08-19T05:06:11;18.20;99.90
62912;DHT22;49111;51.028;4.218;2022-08-19T05:08:39;18.10;99.90
62912;DHT22;49111;51.028;4.218;2022-08-19T05:13:41;18.10;99.90
62912;DHT22;49111;51.028;4.218;2022-08-19T05:16:10;18.10;99.90
62912;DHT22;49111;51.028;4.218;2022-08-19T05:18:36;18.10;99.90
62912;DHT22;49111;51.028;4.218;2022-08-19T05:21:21;18.20;99.90
62912;DHT22;49111;51.028;4.218;2022-08-19T05:24:06;18.20;99.90
62912;DHT22;49111;51.028;4.218;2022-08-19T05:26:38;18.20;99.90
62912;DHT22;49111;51.028;4.218;2022-08-19T05:29:05;18.20;99.90
62912;DHT22;49111;51.028;4.218;2022-08-19T05:31:33;18.20;99.90
62912;DHT22;49111;51.028;4.218;2022-08-19T05:33:59;18.20;99.90
62912;DHT22;49111;51.028;4.218;2022-08-19T05:36:26;18.20;99.90
62912;DHT22;49111;51.028;4.218;2022-08-19T05:38:52;18.30;99.90
62912;DHT22;49111;51.028;4.218;2022-08-19T05:41:20;18.40;99.90
62912;DHT22;49111;51.028;4.218;2022-08-19T05:43:46;18.50;99.90
62912;DHT22;49111;51.028;4.218;2022-08-19T05:46:19;18.50;99.90
62912;DHT22;49111;51.028;4.218;2022-08-19T05:48:45;18.50;99.90
62912;DHT22;49111;51.028;4.218;2022-08-19T05:51:11;18.50;99.90
62912;DHT22;49111;51.028;4.218;2022-08-19T05:53:37;18.50;99.90
62912;DHT22;49111;51.028;4.218;2022-08-19T05:56:07;18.50;99.90
62912;DHT22;49111;51.028;4.218;2022-08-19T05:58:35;18.60;99.90
62912;DHT22;49111;51.028;4.218;2022-08-19T06:01:01;18.70;99.90
62912;DHT22;49111;51.028;4.218;2022-08-19T06:03:32;18.70;99.90
62912;DHT22;49111;51.028;4.218;2022-08-19T06:05:59;18.70;99.90
62912;DHT22;49111;51.028;4.218;2022-08-19T06:08:26;18.80;99.90
62912;DHT22;49111;51.028;4.218;2022-08-19T06:10:52;18.90;99.90
62912;DHT22;49111;51.028;4.218;2022-08-19T06:13:18;19.00;99.90
62912;DHT22;49111;51.028;4.218;2022-08-19T06:15:45;19.20;99.90
62912;DHT22;49111;51.028;4.218;2022-08-19T06:18:13;19.30;99.90
62912;DHT22;49111;51.028;4.218;2022-08-19T06:20:40;19.40;99.90
62912;DHT22;49111;51.028;4.218;2022-08-19T06:23:06;19.50;99.90
62912;DHT22;49111;51.028;4.218;2022-08-19T06:25:33;19.60;99.90
62912;DHT22;49111;51.028;4.218;2022-08-19T06:27:59;19.70;99.90
62912;DHT22;49111;51.028;4.218;2022-08-19T06:30:25;19.60;99.90
62912;DHT22;49111;51.028;4.218;2022-08-19T06:32:51;19.70;99.90
62912;DHT22;49111;51.028;4.218;2022-08-19T06:35:17;19.80;99.90
62912;DHT22;49111;51.028;4.218;2022-08-19T06:37:43;19.90;99.90
62912;DHT22;49111;51.028;4.218;2022-08-19T06:40:10;20.00;99.90
62912;DHT22;49111;51.028;4.218;2022-08-19T06:42:38;19.90;99.90
62912;DHT22;49111;51.028;4.218;2022-08-19T06:45:04;20.00;99.90
62912;DHT22;49111;51.028;4.218;2022-08-19T06:47:31;20.20;99.90
62912;DHT22;49111;51.028;4.218;2022-08-19T06:49:59;20.10;99.90
62912;DHT22;49111;51.028;4.218;2022-08-19T06:52:30;20.10;99.90
62912;DHT22;49111;51.028;4.218;2022-08-19T06:54:55;20.20;99.90
62912;DHT22;49111;51.028;4.218;2022-08-19T06:57:23;20.30;99.90
62912;DHT22;49111;51.028;4.218;2022-08-19T06:59:49;20.40;99.90
62912;DHT22;49111;51.028;4.218;2022-08-19T07:02:14;20.60;99.90
62912;DHT22;49111;51.028;4.218;2022-08-19T07:04:40;20.70;99.90
62912;DHT22;49111;51.028;4.218;2022-08-19T07:07:11;20.70;99.90
62912;DHT22;49111;51.028;4.218;2022-08-19T07:09:40;20.60;99.90
62912;DHT22;49111;51.028;4.218;2022-08-19T07:12:08;20.70;99.90
62912;DHT22;49111;51.028;4.218;2022-08-19T07:14:36;20.80;99.90
62912;DHT22;49111;51.028;4.218;2022-08-19T07:17:07;20.90;99.90
62912;DHT22;49111;51.028;4.218;2022-08-19T07:19:33;20.90;99.90
62912;DHT22;49111;51.028;4.218;2022-08-19T07:22:04;20.90;99.90
62912;DHT22;49111;51.028;4.218;2022-08-19T07:24:32;21.00;99.90
62912;DHT22;49111;51.028;4.218;2022-08-19T07:27:00;21.10;99.90
62912;DHT22;49111;51.028;4.218;2022-08-19T07:29:32;21.30;99.90
62912;DHT22;49111;51.028;4.218;2022-08-19T07:32:00;21.50;99.90
62912;DHT22;49111;51.028;4.218;2022-08-19T07:34:27;21.80;99.90
62912;DHT22;49111;51.028;4.218;2022-08-19T07:36:55;21.90;99.80
62912;DHT22;49111;51.028;4.218;2022-08-19T07:39:24;22.00;99.70
62912;DHT22;49111;51.028;4.218;2022-08-19T07:41:50;22.10;99.50
62912;DHT22;49111;51.028;4.218;2022-08-19T07:44:18;22.30;99.40
62912;DHT22;49111;51.028;4.218;2022-08-19T07:46:49;22.40;99.40
62912;DHT22;49111;51.028;4.218;2022-08-19T07:49:16;22.50;99.40
62912;DHT22;49111;51.028;4.218;2022-08-19T07:52:01;22.60;99.00
62912;DHT22;49111;51.028;4.218;2022-08-19T07:54:29;22.70;98.50
62912;DHT22;49111;51.028;4.218;2022-08-19T07:56:56;22.70;98.40
62912;DHT22;49111;51.028;4.218;2022-08-19T07:59:22;22.70;98.30
62912;DHT22;49111;51.028;4.218;2022-08-19T08:01:49;22.70;98.30
62912;DHT22;49111;51.028;4.218;2022-08-19T08:04:16;22.70;98.90
62912;DHT22;49111;51.028;4.218;2022-08-19T08:07:01;22.70;98.40
62912;DHT22;49111;51.028;4.218;2022-08-19T08:09:46;22.70;98.60
62912;DHT22;49111;51.028;4.218;2022-08-19T08:12:19;22.70;98.60
62912;DHT22;49111;51.028;4.218;2022-08-19T08:14:52;22.80;98.40
62912;DHT22;49111;51.028;4.218;2022-08-19T08:17:20;22.70;98.60
62912;DHT22;49111;51.028;4.218;2022-08-19T08:19:46;22.80;98.40
62912;DHT22;49111;51.028;4.218;2022-08-19T08:22:17;22.70;98.80
62912;DHT22;49111;51.028;4.218;2022-08-19T08:25:15;22.60;98.80
62912;DHT22;49111;51.028;4.218;2022-08-19T08:27:44;22.70;98.90
62912;DHT22;49111;51.028;4.218;2022-08-19T08:30:16;22.70;98.90
62912;DHT22;49111;51.028;4.218;2022-08-19T08:32:42;22.80;98.70
62912;DHT22;49111;51.028;4.218;2022-08-19T08:35:12;22.80;98.60
62912;DHT22;49111;51.028;4.218;2022-08-19T08:37:39;22.90;98.80
62912;DHT22;49111;51.028;4.218;2022-08-19T08:40:09;23.00;98.50
62912;DHT22;49111;51.028;4.218;2022-08-19T08:42:49;22.90;98.50
62912;DHT22;49111;51.028;4.218;2022-08-19T08:45:18;22.90;98.50
62912;DHT22;49111;51.028;4.218;2022-08-19T08:47:48;22.90;98.80
62912;DHT22;49111;51.028;4.218;2022-08-19T08:50:22;23.00;99.00
62912;DHT22;49111;51.028;4.218;2022-08-19T08:52:51;23.20;98.30
62912;DHT22;49111;51.028;4.218;2022-08-19T08:55:22;23.30;98.10
62912;DHT22;49111;51.028;4.218;2022-08-19T09:00:33;23.30;97.80
62912;DHT22;49111;51.028;4.218;2022-08-19T09:03:00;23.40;97.70
62912;DHT22;49111;51.028;4.218;2022-08-19T09:06:00;23.30;97.90
62912;DHT22;49111;51.028;4.218;2022-08-19T09:08:49;23.10;98.30
62912;DHT22;49111;51.028;4.218;2022-08-19T09:14:16;23.40;98.20
62912;DHT22;49111;51.028;4.218;2022-08-19T09:16:46;23.50;97.90
62912;DHT22;49111;51.028;4.218;2022-08-19T09:19:13;23.50;98.00
62912;DHT22;49111;51.028;4.218;2022-08-19T09:21:39;23.50;98.20
62912;DHT22;49111;51.028;4.218;2022-08-19T09:24:05;23.70;97.70
62912;DHT22;49111;51.028;4.218;2022-08-19T09:26:33;23.70;97.80
62912;DHT22;49111;51.028;4.218;2022-08-19T09:28:59;23.70;97.40
62912;DHT22;49111;51.028;4.218;2022-08-19T09:31:28;23.70;97.40
62912;DHT22;49111;51.028;4.218;2022-08-19T09:33:55;23.70;97.50
62912;DHT22;49111;51.028;4.218;2022-08-19T09:36:26;23.60;97.30
62912;DHT22;49111;51.028;4.218;2022-08-19T09:38:52;23.60;97.50
62912;DHT22;49111;51.028;4.218;2022-08-19T09:41:21;23.50;97.80
62912;DHT22;49111;51.028;4.218;2022-08-19T09:43:50;23.60;97.60
62912;DHT22;49111;51.028;4.218;2022-08-19T09:46:19;23.60;97.70
62912;DHT22;49111;51.028;4.218;2022-08-19T09:48:49;23.50;98.20
62912;DHT22;49111;51.028;4.218;2022-08-19T09:51:19;23.60;97.90
62912;DHT22;49111;51.028;4.218;2022-08-19T09:53:46;23.60;98.10
62912;DHT22;49111;51.028;4.218;2022-08-19T09:56:13;23.50;98.00
62912;DHT22;49111;51.028;4.218;2022-08-19T09:58:39;23.60;98.10
62912;DHT22;49111;51.028;4.218;2022-08-19T10:01:08;23.60;97.80
62912;DHT22;49111;51.028;4.218;2022-08-19T10:03:36;23.50;98.50
62912;DHT22;49111;51.028;4.218;2022-08-19T10:06:03;23.30;99.00
62912;DHT22;49111;51.028;4.218;2022-08-19T10:08:35;23.10;99.50
62912;DHT22;49111;51.028;4.218;2022-08-19T10:11:03;23.10;99.60
62912;DHT22;49111;51.028;4.218;2022-08-19T10:13:31;23.10;99.40
62912;DHT22;49111;51.028;4.218;2022-08-19T10:16:09;23.20;99.30
62912;DHT22;49111;51.028;4.218;2022-08-19T10:18:36;23.20;99.20
62912;DHT22;49111;51.028;4.218;2022-08-19T10:21:13;23.30;99.00
62912;DHT22;49111;51.028;4.218;2022-08-19T10:23:43;23.30;99.00
62912;DHT22;49111;51.028;4.218;2022-08-19T10:26:18;23.50;98.90
62912;DHT22;49111;51.028;4.218;2022-08-19T10:28:45;23.50;99.10
62912;DHT22;49111;51.028;4.218;2022-08-19T10:31:14;23.50;99.00
62912;DHT22;49111;51.028;4.218;2022-08-19T10:33:41;23.60;99.00
62912;DHT22;49111;51.028;4.218;2022-08-19T10:36:09;23.50;98.80
62912;DHT22;49111;51.028;4.218;2022-08-19T10:38:36;23.60;98.70
62912;DHT22;49111;51.028;4.218;2022-08-19T10:41:13;23.50;98.50
62912;DHT22;49111;51.028;4.218;2022-08-19T10:43:40;23.40;98.50
62912;DHT22;49111;51.028;4.218;2022-08-19T10:46:09;23.40;98.70
62912;DHT22;49111;51.028;4.218;2022-08-19T10:48:36;23.40;98.70
62912;DHT22;49111;51.028;4.218;2022-08-19T10:51:02;23.40;99.10
62912;DHT22;49111;51.028;4.218;2022-08-19T10:53:47;23.40;99.00
62912;DHT22;49111;51.028;4.218;2022-08-19T10:56:13;23.30;98.80
62912;DHT22;49111;51.028;4.218;2022-08-19T10:58:57;23.30;98.90
62912;DHT22;49111;51.028;4.218;2022-08-19T11:01:26;23.30;99.10
62912;DHT22;49111;51.028;4.218;2022-08-19T11:03:51;23.30;99.20
62912;DHT22;49111;51.028;4.218;2022-08-19T11:06:18;23.40;99.00
62912;DHT22;49111;51.028;4.218;2022-08-19T11:08:45;23.50;99.00
62912;DHT22;49111;51.028;4.218;2022-08-19T11:11:11;23.70;98.50
62912;DHT22;49111;51.028;4.218;2022-08-19T11:13:40;23.90;98.10
62912;DHT22;49111;51.028;4.218;2022-08-19T11:16:18;23.90;98.00
62912;DHT22;49111;51.028;4.218;2022-08-19T11:18:52;23.90;97.90
62912;DHT22;49111;51.028;4.218;2022-08-19T11:21:31;24.10;97.60
62912;DHT22;49111;51.028;4.218;2022-08-19T11:24:00;24.10;97.70
62912;DHT22;49111;51.028;4.218;2022-08-19T11:26:26;24.30;97.60
62912;DHT22;49111;51.028;4.218;2022-08-19T11:28:53;24.40;97.30
62912;DHT22;49111;51.028;4.218;2022-08-19T11:31:23;24.50;97.00
62912;DHT22;49111;51.028;4.218;2022-08-19T11:33:50;24.80;97.10
62912;DHT22;49111;51.028;4.218;2022-08-19T11:36:17;25.10;96.40
62912;DHT22;49111;51.028;4.218;2022-08-19T11:38:44;25.20;96.00
62912;DHT22;49111;51.028;4.218;2022-08-19T11:41:10;25.40;95.50
62912;DHT22;49111;51.028;4.218;2022-08-19T11:43:37;25.60;95.20
62912;DHT22;49111;51.028;4.218;2022-08-19T11:46:11;25.60;94.90
62912;DHT22;49111;51.028;4.218;2022-08-19T11:48:38;25.70;94.80
62912;DHT22;49111;51.028;4.218;2022-08-19T11:51:06;25.80;94.70
62912;DHT22;49111;51.028;4.218;2022-08-19T11:53:32;26.00;94.20
62912;DHT22;49111;51.028;4.218;2022-08-19T11:55:59;26.10;93.90
62912;DHT22;49111;51.028;4.218;2022-08-19T11:58:25;26.20;94.30
62912;DHT22;49111;51.028;4.218;2022-08-19T12:00:51;26.20;94.20
62912;DHT22;49111;51.028;4.218;2022-08-19T12:03:17;26.40;93.90
62912;DHT22;49111;51.028;4.218;2022-08-19T12:05:44;26.50;93.50
62912;DHT22;49111;51.028;4.218;2022-08-19T12:08:11;26.50;93.30
62912;DHT22;49111;51.028;4.218;2022-08-19T12:10:39;26.50;93.40
62912;DHT22;49111;51.028;4.218;2022-08-19T12:13:05;26.60;92.80
62912;DHT22;49111;51.028;4.218;2022-08-19T12:15:37;26.70;92.90
62912;DHT22;49111;51.028;4.218;2022-08-19T12:18:04;26.70;93.00
62912;DHT22;49111;51.028;4.218;2022-08-19T12:20:30;26.80;92.80
62912;DHT22;49111;51.028;4.218;2022-08-19T12:22:55;26.80;92.60
62912;DHT22;49111;51.028;4.218;2022-08-19T12:25:21;26.80;92.20
62912;DHT22;49111;51.028;4.218;2022-08-19T12:27:47;26.60;92.70
62912;DHT22;49111;51.028;4.218;2022-08-19T12:30:13;26.40;93.30
62912;DHT22;49111;51.028;4.218;2022-08-19T12:32:39;26.30;94.10
62912;DHT22;49111;51.028;4.218;2022-08-19T12:35:07;26.20;94.80
62912;DHT22;49111;51.028;4.218;2022-08-19T12:37:34;25.90;95.70
62912;DHT22;49111;51.028;4.218;2022-08-19T12:40:00;25.70;96.20
62912;DHT22;49111;51.028;4.218;2022-08-19T12:42:26;25.80;96.80
62912;DHT22;49111;51.028;4.218;2022-08-19T12:44:52;25.70;96.60
62912;DHT22;49111;51.028;4.218;2022-08-19T12:47:18;25.60;96.90
62912;DHT22;49111;51.028;4.218;2022-08-19T12:49:44;25.70;95.80
62912;DHT22;49111;51.028;4.218;2022-08-19T12:52:12;25.80;96.50
62912;DHT22;49111;51.028;4.218;2022-08-19T12:54:41;26.00;96.00
62912;DHT22;49111;51.028;4.218;2022-08-19T12:57:08;26.10;95.60
62912;DHT22;49111;51.028;4.218;2022-08-19T12:59:36;26.30;95.10
62912;DHT22;49111;51.028;4.218;2022-08-19T13:02:06;26.40;95.20
62912;DHT22;49111;51.028;4.218;2022-08-19T13:04:33;26.40;94.70
62912;DHT22;49111;51.028;4.218;2022-08-19T13:07:06;26.50;94.10
62912;DHT22;49111;51.028;4.218;2022-08-19T13:09:33;26.40;93.50
62912;DHT22;49111;51.028;4.218;2022-08-19T13:11:59;26.60;93.20
62912;DHT22;49111;51.028;4.218;2022-08-19T13:14:28;26.70;93.50
62912;DHT22;49111;51.028;4.218;2022-08-19T13:16:57;26.80;93.60
62912;DHT22;49111;51.028;4.218;2022-08-19T13:19:23;26.80;93.00
62912;DHT22;49111;51.028;4.218;2022-08-19T13:21:50;26.70;93.40
62912;DHT22;49111;51.028;4.218;2022-08-19T13:24:17;26.60;92.70
62912;DHT22;49111;51.028;4.218;2022-08-19T13:26:43;26.70;92.90
62912;DHT22;49111;51.028;4.218;2022-08-19T13:29:09;26.90;92.50
62912;DHT22;49111;51.028;4.218;2022-08-19T13:31:53;26.90;91.70
62912;DHT22;49111;51.028;4.218;2022-08-19T13:34:38;27.00;91.70
62912;DHT22;49111;51.028;4.218;2022-08-19T13:37:05;27.10;91.60
62912;DHT22;49111;51.028;4.218;2022-08-19T13:39:32;27.00;92.10
62912;DHT22;49111;51.028;4.218;2022-08-19T13:41:59;27.10;92.30
62912;DHT22;49111;51.028;4.218;2022-08-19T13:44:25;27.20;91.70
62912;DHT22;49111;51.028;4.218;2022-08-19T13:46:51;27.10;91.90
62912;DHT22;49111;51.028;4.218;2022-08-19T13:49:19;27.20;91.60
62912;DHT22;49111;51.028;4.218;2022-08-19T13:51:45;27.20;91.80
62912;DHT22;49111;51.028;4.218;2022-08-19T13:54:12;27.20;91.40
62912;DHT22;49111;51.028;4.218;2022-08-19T13:56:43;27.20;91.80
62912;DHT22;49111;51.028;4.218;2022-08-19T13:59:10;27.20;91.60
62912;DHT22;49111;51.028;4.218;2022-08-19T14:01:37;26.90;91.30
62912;DHT22;49111;51.028;4.218;2022-08-19T14:04:03;26.80;91.60
62912;DHT22;49111;51.028;4.218;2022-08-19T14:06:29;26.70;92.00
62912;DHT22;49111;51.028;4.218;2022-08-19T14:08:55;26.60;92.20
62912;DHT22;49111;51.028;4.218;2022-08-19T14:11:21;26.60;92.30
62912;DHT22;49111;51.028;4.218;2022-08-19T14:13:48;26.60;91.60
62912;DHT22;49111;51.028;4.218;2022-08-19T14:16:14;26.70;91.10
62912;DHT22;49111;51.028;4.218;2022-08-19T14:18:41;26.50;91.70
62912;DHT22;49111;51.028;4.218;2022-08-19T14:21:14;26.30;92.20
62912;DHT22;49111;51.028;4.218;2022-08-19T14:23:41;26.10;92.90
62912;DHT22;49111;51.028;4.218;2022-08-19T14:26:12;25.90;92.80
62912;DHT22;49111;51.028;4.218;2022-08-19T14:28:40;25.60;93.20
62912;DHT22;49111;51.028;4.218;2022-08-19T14:31:13;25.50;93.40
62912;DHT22;49111;51.028;4.218;2022-08-19T14:33:46;25.30;93.80
62912;DHT22;49111;51.028;4.218;2022-08-19T14:36:12;25.10;94.20
62912;DHT22;49111;51.028;4.218;2022-08-19T14:38:38;25.10;94.30
62912;DHT22;49111;51.028;4.218;2022-08-19T14:43:34;24.90;95.20
62912;DHT22;49111;51.028;4.218;2022-08-19T14:46:00;24.80;96.60
62912;DHT22;49111;51.028;4.218;2022-08-19T14:48:25;24.60;97.00
62912;DHT22;49111;51.028;4.218;2022-08-19T14:50:52;24.60;97.30
62912;DHT22;49111;51.028;4.218;2022-08-19T14:53:18;24.60;97.80
62912;DHT22;49111;51.028;4.218;2022-08-19T14:55:45;24.60;97.70
62912;DHT22;49111;51.028;4.218;2022-08-19T14:58:12;24.90;97.20
62912;DHT22;49111;51.028;4.218;2022-08-19T15:00:38;25.00;97.00
62912;DHT22;49111;51.028;4.218;2022-08-19T15:03:04;25.00;96.50
62912;DHT22;49111;51.028;4.218;2022-08-19T15:05:30;24.90;95.60
62912;DHT22;49111;51.028;4.218;2022-08-19T15:07:57;24.80;95.20
62912;DHT22;49111;51.028;4.218;2022-08-19T15:10:23;24.90;95.20
62912;DHT22;49111;51.028;4.218;2022-08-19T15:12:50;25.00;94.70
62912;DHT22;49111;51.028;4.218;2022-08-19T15:15:16;25.10;94.40
62912;DHT22;49111;51.028;4.218;2022-08-19T15:17:45;25.10;94.30
62912;DHT22;49111;51.028;4.218;2022-08-19T15:20:16;25.20;94.50
62912;DHT22;49111;51.028;4.218;2022-08-19T15:22:42;25.40;94.40
62912;DHT22;49111;51.028;4.218;2022-08-19T15:25:09;25.70;94.20
62912;DHT22;49111;51.028;4.218;2022-08-19T15:27:36;25.90;93.70
62912;DHT22;49111;51.028;4.218;2022-08-19T15:30:02;25.90;93.60
62912;DHT22;49111;51.028;4.218;2022-08-19T15:32:29;26.00;93.50
62912;DHT22;49111;51.028;4.218;2022-08-19T15:34:55;26.10;93.90
62912;DHT22;49111;51.028;4.218;2022-08-19T15:37:21;26.10;92.80
62912;DHT22;49111;51.028;4.218;2022-08-19T15:39:50;26.00;92.90
62912;DHT22;49111;51.028;4.218;2022-08-19T15:42:16;25.90;93.10
62912;DHT22;49111;51.028;4.218;2022-08-19T15:44:42;25.80;92.90
62912;DHT22;49111;51.028;4.218;2022-08-19T15:47:08;25.80;93.40
62912;DHT22;49111;51.028;4.218;2022-08-19T15:49:34;25.80;93.40